^^
Station Historical Data
Daily Summary for January 29, 2018 Units:  Metric    English   Both
« Previous Day
Next Day »
Daily Weekly Monthly Yearly Custom
  High: Low: Average:
Temperature: -17.8 °C 19.7 °C 25.6 °C
Dew Point: -17.8 °C 3.4 °C 8.2 °C
Humidity: Humidity% 13% 35%
Wind Speed: 0km/h 0km/h 9.2km/h
Wind Gust: 0km/h - -
Wind- - SSW
Pressure: 0 hPa 1001.6 hPa -
Precipitation: 0 mm    
Historical Graphs
 
 
Tabular Data for January 29, 2018
Time Temperature Dew Point Pressure Wind Wind Speed Wind Gust Humidity Rainfall Rate (Hourly) solar Conditions
-17.8 °C -17.8 °C 0 hPa Calm     Humidity% 0 mm SolarRadiationWatts/m^2 W/m2 Conditions
00:07 26.4 °C 6.9 °C 1006.7 hPa SSW 11.1 km/h 16.1 km/h 29% 0 mm 0.0 W/m2
00:12 26.3 °C 6.8 °C 1006.7 hPa SSW 14.3 km/h 16.1 km/h 29% 0 mm 0.0 W/m2
00:17 26.3 °C 7.3 °C 1006.7 hPa SSW 17.7 km/h 20.9 km/h 30% 0 mm 0.0 W/m2
00:27 26.1 °C 7.2 °C 1006.7 hPa SSW 11.1 km/h 12.9 km/h 30% 0 mm 0.0 W/m2
00:32 25.9 °C 7.5 °C 1006.7 hPa SSW 9.7 km/h 12.9 km/h 31% 0 mm 0.0 W/m2
00:38 25.8 °C 7.4 °C 1006.7 hPa SSW 7.9 km/h 9.7 km/h 31% 0 mm 0.0 W/m2
00:43 25.6 °C 7.7 °C 1006.3 hPa SSW 9.7 km/h 11.3 km/h 32% 0 mm 0.0 W/m2
00:48 25.4 °C 7.5 °C 1006.7 hPa SSW 7.9 km/h 11.3 km/h 32% 0 mm 0.0 W/m2
00:53 25.3 °C 7.4 °C 1006.3 hPa SSW 9.7 km/h 11.3 km/h 32% 0 mm 0.0 W/m2
01:03 25.1 °C 7.7 °C 1006.3 hPa SSW 7.9 km/h 8 km/h 33% 0 mm 0.0 W/m2
01:08 24.8 °C 7.4 °C 1006.3 hPa SSW 3.2 km/h 6.4 km/h 33% 0 mm 0.0 W/m2
01:13 24.6 °C 7.3 °C 1006.3 hPa SSW 1.4 km/h 4.8 km/h 33% 0 mm 0.0 W/m2
01:18 24.4 °C 7.1 °C 1006.3 hPa SSW 4.7 km/h 6.4 km/h 33% 0 mm 0.0 W/m2
01:28 24.1 °C 7.3 °C 1006 hPa SSW 6.4 km/h 8 km/h 34% 0 mm 0.0 W/m2
01:33 23.9 °C 7.1 °C 1006 hPa SSW 4.7 km/h 8 km/h 34% 0 mm 0.0 W/m2
01:43 23.8 °C 7.4 °C 1006 hPa SSW 6.4 km/h 8 km/h 35% 0 mm 0.0 W/m2
01:48 23.8 °C 7.4 °C 1006 hPa SSW 7.9 km/h 11.3 km/h 35% 0 mm 0.0 W/m2
01:58 23.8 °C 7.4 °C 1005.6 hPa SSW 6.4 km/h 9.7 km/h 35% 0 mm 0.0 W/m2
02:04 23.7 °C 7.7 °C 1005.6 hPa SSW 6.4 km/h 11.3 km/h 36% 0 mm 0.0 W/m2
02:13 23.7 °C 7.7 °C 1005.6 hPa SSW 7.9 km/h 11.3 km/h 36% 0 mm 0.0 W/m2
02:18 23.7 °C 7.7 °C 1005.6 hPa SSW 7.9 km/h 9.7 km/h 36% 0 mm 0.0 W/m2
02:23 23.7 °C 7.7 °C 1005.3 hPa SSW 9.7 km/h 9.7 km/h 36% 0 mm 0.0 W/m2
02:33 23.6 °C 7.7 °C 1005 hPa SSW 11.1 km/h 12.9 km/h 36% 0 mm 0.0 W/m2
02:38 23.6 °C 7.7 °C 1005 hPa SSW 9.7 km/h 12.9 km/h 36% 0 mm 0.0 W/m2
02:43 23.6 °C 8.1 °C 1005 hPa SSW 9.7 km/h 11.3 km/h 37% 0 mm 0.0 W/m2
02:48 23.6 °C 8.1 °C 1005 hPa SSW 11.1 km/h 12.9 km/h 37% 0 mm 0.0 W/m2
02:54 23.6 °C 8.1 °C 1005 hPa SSW 7.9 km/h 11.3 km/h 37% 0 mm 0.0 W/m2
02:59 23.5 °C 8 °C 1005 hPa SSW 7.9 km/h 11.3 km/h 37% 0 mm 0.0 W/m2
03:09 23.2 °C 7.7 °C 1005 hPa SSW 7.9 km/h 9.7 km/h 37% 0 mm 0.0 W/m2
03:14 23.1 °C 8 °C 1005 hPa SSW 6.4 km/h 9.7 km/h 38% 0 mm 0.0 W/m2
03:19 22.9 °C 7.8 °C 1005 hPa SSW 3.2 km/h 6.4 km/h 38% 0 mm 0.0 W/m2
03:24 22.8 °C 8.1 °C 1005.3 hPa Calm     39% 0 mm 0.0 W/m2
03:29 22.8 °C 8.1 °C 1005.3 hPa Calm     39% 0 mm 0.0 W/m2
03:34 22.8 °C 7.7 °C 1005.3 hPa Calm     38% 0 mm 0.0 W/m2
03:40 22.8 °C 8.1 °C 1005 hPa SSW 7.9 km/h 8 km/h 39% 0 mm 0.0 W/m2
03:45 22.6 °C 7.9 °C 1005 hPa SSW 7.9 km/h 9.7 km/h 39% 0 mm 0.0 W/m2
03:50 22.4 °C 8.1 °C 1005 hPa SSW 4.7 km/h 8 km/h 40% 0 mm 0.0 W/m2
03:55 22.2 °C 8 °C 1005.3 hPa SSW 7.9 km/h 8 km/h 40% 0 mm 0.0 W/m2
04:00 22.1 °C 8.2 °C 1005.3 hPa SSW 3.2 km/h 6.4 km/h 41% 0 mm 0.0 W/m2
04:05 22 °C 8.1 °C 1005 hPa SSW 6.4 km/h 8 km/h 41% 0 mm 0.0 W/m2
04:10 21.8 °C 8.3 °C 1005 hPa SSW 7.9 km/h 9.7 km/h 42% 0 mm 0.0 W/m2
04:20 21.6 °C 8.5 °C 1005 hPa SSW 4.7 km/h 8 km/h 43% 0 mm 0.0 W/m2
04:25 21.5 °C 8.4 °C 1005 hPa SSW 6.4 km/h 9.7 km/h 43% 0 mm 0.0 W/m2
04:30 21.4 °C 8.6 °C 1005 hPa SSW 7.9 km/h 8 km/h 44% 0 mm 0.0 W/m2
04:35 21.3 °C 8.6 °C 1005 hPa SSW 4.7 km/h 8 km/h 44% 0 mm 0.0 W/m2
04:40 21.2 °C 8.5 °C 1005.3 hPa SSW 4.7 km/h 4.8 km/h 44% 0 mm 0.0 W/m2
04:45 21.1 °C 8.4 °C 1005.3 hPa SSW 6.4 km/h 8 km/h 44% 0 mm 0.0 W/m2
04:50 20.9 °C 8.5 °C 1005.3 hPa SSW 6.4 km/h 8 km/h 45% 0 mm 0.0 W/m2
04:55 20.9 °C 8.5 °C 1005.3 hPa SSW 7.9 km/h 9.7 km/h 45% 0 mm 0.0 W/m2
05:01 20.9 °C 8.2 °C 1005.3 hPa Calm   3.2 km/h 44% 0 mm 0.0 W/m2
05:06 20.8 °C 8.4 °C 1005.3 hPa Calm     45% 0 mm 0.0 W/m2
05:11 20.6 °C 8.2 °C 1005 hPa Calm     45% 0 mm 0.0 W/m2
05:16 20.4 °C 8.4 °C 1005.3 hPa Calm     46% 0 mm 0.0 W/m2
05:21 20.4 °C 8.7 °C 1005.3 hPa Calm     47% 0 mm 0.0 W/m2
05:27 20.7 °C 8.7 °C 1005.3 hPa Calm     46% 0 mm 0.0 W/m2
05:32 20.7 °C 8.7 °C 1005.3 hPa Calm     46% 0 mm 0.0 W/m2
05:37 20.7 °C 9 °C 1005.3 hPa Calm     47% 0 mm 0.0 W/m2
05:43 20.6 °C 8.9 °C 1005.3 hPa Calm     47% 0 mm 0.0 W/m2
05:48 20.3 °C 9.2 °C 1005.3 hPa Calm     49% 0 mm 0.0 W/m2
05:53 20.3 °C 9.5 °C 1005.3 hPa Calm     50% 0 mm 0.0 W/m2
05:58 20.2 °C 8.8 °C 1005.3 hPa Calm     48% 0 mm 0.0 W/m2
06:03 19.8 °C 8.8 °C 1005.3 hPa Calm     49% 0 mm 0.0 W/m2
06:08 19.7 °C 9.9 °C 1005.3 hPa Calm     53% 0 mm 0.0 W/m2
06:13 19.8 °C 9.9 °C 1005.3 hPa SSW 9.7 km/h 11.3 km/h 53% 0 mm 0.0 W/m2
06:23 20.1 °C 9.9 °C 1005.3 hPa SSW 3.2 km/h 6.4 km/h 52% 0 mm 7.0 W/m2
06:33 19.7 °C 9.9 °C 1005.3 hPa SSW 4.7 km/h 6.4 km/h 53% 0 mm 14.0 W/m2
06:39 19.8 °C 9.9 °C 1005.6 hPa Calm   1.6 km/h 53% 0 mm 16.0 W/m2
06:45 19.8 °C 9.9 °C 1005.3 hPa Calm     53% 0 mm 26.0 W/m2
06:50 20 °C 10.1 °C 1005.6 hPa Calm     53% 0 mm 39.0 W/m2
07:00 20.4 °C 10.8 °C 1005.6 hPa Calm     54% 0 mm 69.0 W/m2
07:10 20.9 °C 11.2 °C 1005.6 hPa Calm     54% 0 mm 100.0 W/m2
07:20 21.4 °C 11.4 °C 1005.6 hPa Calm     53% 0 mm 146.0 W/m2
07:30 21.9 °C 11.3 °C 1005.6 hPa Calm     51% 0 mm 186.0 W/m2
07:35 22.1 °C 11.5 °C 1005.6 hPa Calm     51% 0 mm 213.0 W/m2
07:41 22.3 °C 11.4 °C 1005.6 hPa Calm     50% 0 mm 229.0 W/m2
07:46 22.6 °C 11.3 °C 1005.6 hPa SSW 13 km/h 13 km/h 49% 0 mm 248.0 W/m2
07:55 22.9 °C 11.6 °C 1005.6 hPa SSW 9.7 km/h 12.9 km/h 49% 0 mm 285.0 W/m2
08:02 23.1 °C 11.5 °C 1006 hPa SSW 7.9 km/h 11.3 km/h 48% 0 mm 302.0 W/m2
08:07 23.3 °C 11.4 °C 1006 hPa SSW 9.7 km/h 11.3 km/h 47% 0 mm 320.0 W/m2
08:12 23.4 °C 11.4 °C 1006 hPa SSW 9.7 km/h 11.3 km/h 47% 0 mm 338.0 W/m2
08:15 23.7 °C 11.4 °C 1006 hPa SSW 13 km/h 13 km/h 46% 0 mm 355.0 W/m2
08:25 23.9 °C 11.6 °C 1006 hPa SSW 13 km/h 13 km/h 46% 0 mm 371.0 W/m2
08:34 24.3 °C 11.6 °C 1006 hPa SSW 11.1 km/h 16.1 km/h 45% 0 mm 406.0 W/m2
08:43 24.7 °C 11.3 °C 1006 hPa SSW 7.9 km/h 11.3 km/h 43% 0 mm 438.0 W/m2
08:54 25.2 °C 10.6 °C 1006 hPa SSW 7.9 km/h 14.5 km/h 40% 0 mm 476.0 W/m2
09:06 25.8 °C 10.8 °C 1006.3 hPa SSW 13 km/h 16.1 km/h 39% 0 mm 510.0 W/m2
09:19 26.4 °C 10.5 °C 1006.3 hPa SSW 13 km/h 17.7 km/h 37% 0 mm 559.0 W/m2
09:32 26.9 °C 11 °C 1006.3 hPa SSW 16.3 km/h 19.3 km/h 37% 0 mm 592.0 W/m2
09:46 27.4 °C 10.6 °C 1006 hPa SSW 11.1 km/h 16.1 km/h 35% 0 mm 640.0 W/m2
09:56 27.9 °C 10.6 °C 1006 hPa SSW 7.9 km/h 19.3 km/h 34% 0 mm 684.0 W/m2
10:11 28.7 °C 10.4 °C 1006 hPa SSW 13 km/h 19.3 km/h 32% 0 mm 724.0 W/m2
10:32 29.6 °C 10.7 °C 1006 hPa SSW 13 km/h 16.1 km/h 31% 0 mm 765.0 W/m2
10:41 30.3 °C 10.8 °C 1005.6 hPa SSW 13 km/h 17.7 km/h 30% 0 mm 802.0 W/m2
10:57 31.1 °C 10.4 °C 1005.6 hPa SSW 9.7 km/h 19.3 km/h 28% 0 mm 833.0 W/m2
11:18 31.3 °C 10.1 °C 1005.6 hPa SSW 13 km/h 17.7 km/h 27% 0 mm 863.0 W/m2
11:32 32.1 °C 10.2 °C 1005.3 hPa SW 13 km/h 20.9 km/h 26% 0 mm 891.0 W/m2
11:42 32.7 °C 9.5 °C 1005 hPa SW 16.3 km/h 22.5 km/h 24% 0 mm 916.0 W/m2
12:02 33.1 °C 9.2 °C 1004.6 hPa SW 17.7 km/h 20.9 km/h 23% 0 mm 928.0 W/m2
12:07 33.6 °C 8.9 °C 1004.6 hPa SW 16.3 km/h 16.3 km/h 22% 0 mm 937.0 W/m2
12:22 34.3 °C 8.8 °C 1004.3 hPa SW 19.5 km/h 19.5 km/h 21% 0 mm 953.0 W/m2
12:42 34.8 °C 8.5 °C 1003.9 hPa SW 19.5 km/h 24.1 km/h 20% 0 mm 960.0 W/m2
12:59 35.2 °C 8.1 °C 1003.9 hPa SW 19.5 km/h 25.7 km/h 19% 0 mm 963.0 W/m2
13:14 35 °C 8.7 °C 1003.9 hPa SW 16.3 km/h 20.9 km/h 20% 0 mm 967.0 W/m2
13:30 35.3 °C 8.2 °C 1003.6 hPa SW 17.7 km/h 22.5 km/h 19% 0 mm 963.0 W/m2
13:43 35.7 °C 7.7 °C 1003.3 hPa SSW 16.3 km/h 22.5 km/h 18% 0 mm 954.0 W/m2
13:59 35.8 °C 7 °C 1003.3 hPa SSW 16.3 km/h 24.1 km/h 17% 0 mm 946.0 W/m2
14:08 36.2 °C 7.3 °C 1002.9 hPa SSW 14.3 km/h 19.3 km/h 17% 0 mm 935.0 W/m2
14:29 36.1 °C 7.2 °C 1002.9 hPa SSW 13 km/h 24.1 km/h 17% 0 mm 584.0 W/m2
14:43 36.3 °C 6.5 °C 1002.9 hPa SSW 17.7 km/h 22.5 km/h 16% 0 mm 817.0 W/m2
14:48 36.4 °C 5.6 °C 1002.6 hPa South 19.5 km/h 30.6 km/h 15% 0 mm 722.0 W/m2
15:03 36.2 °C 6.4 °C 1002.6 hPa SW 17.7 km/h 24.1 km/h 16% 0 mm 842.0 W/m2
15:13 36.1 °C 5.4 °C 1002.3 hPa SW 17.7 km/h 22.5 km/h 15% 0 mm 854.0 W/m2
15:29 36.2 °C 5.5 °C 1002.3 hPa SW 16.3 km/h 20.9 km/h 15% 0 mm 805.0 W/m2
15:49 36.3 °C 4.5 °C 1001.9 hPa SSW 13 km/h 22.5 km/h 14% 0 mm 759.0 W/m2
15:59 36.5 °C 3.6 °C 1001.9 hPa SSW 24.1 km/h 25.7 km/h 13% 0 mm 719.0 W/m2
16:19 36.6 °C 3.7 °C 1001.9 hPa SSW 16.3 km/h 22.5 km/h 13% 0 mm 673.0 W/m2
16:34 36.5 °C 3.6 °C 1001.9 hPa South 25.9 km/h 30.6 km/h 13% 0 mm 624.0 W/m2
16:48 36.2 °C 3.4 °C 1001.6 hPa SSW 27.4 km/h 30.6 km/h 13% 0 mm 571.0 W/m2
16:57 35.6 °C 4 °C 1001.6 hPa SSW 25.9 km/h 33.8 km/h 14% 0 mm 538.0 W/m2
17:08 35.4 °C 4.8 °C 1001.6 hPa SSW 27.4 km/h 33.8 km/h 15% 0 mm 506.0 W/m2
17:18 35.1 °C 5.5 °C 1001.6 hPa SSW 35.2 km/h 35.4 km/h 16% 0 mm 471.0 W/m2
17:27 34.8 °C 5.3 °C 1001.6 hPa South 27.4 km/h 35.4 km/h 16% 0 mm 432.0 W/m2
17:36 34.4 °C 5.8 °C 1001.6 hPa South 24.1 km/h 41.8 km/h 17% 0 mm 397.0 W/m2
Canyon Roadhouse, Fishriver Canyon, Namibia
Compliments of Weather Underground - 2.25 mb